Terminal Aerodrome Forecast
Issued by NWS Wilmington, NC

Current Version | Previous Version | Text Only | Print | Product List | Glossary On
Versions: 1 2 3 4 5 6 7 8 9 10 11 12 13 14 15 16 17 18
552
FTUS42 KILM 312323
TAFLBT
TAF
KLBT 312323Z 0100/0124 10003KT P6SM VCSH SCT030 BKN060
      TEMPO 0100/0102 P6SM -RA BKN025
     FM010700 04003KT P6SM SCT005 SCT150
     FM010900 01002KT 6SM BR FEW007
     FM011300 34004KT P6SM VCSH SCT020 SCT150
     FM011900 21011G18KT P6SM VCTS SCT050CB SCT200=

USA.gov is the U.S. government's official web portal to all federal, state and local government web resources and services.